sensor_id;sensor_type;location;lat;lon;timestamp;P1;durP1;ratioP1;P2;durP2;ratioP2
69358;SDS011;56520;49.066;8.660;2023-04-25T00:02:21;4.28;;;1.50;;
69358;SDS011;56520;49.066;8.660;2023-04-25T00:04:47;4.22;;;1.42;;
69358;SDS011;56520;49.066;8.660;2023-04-25T00:07:14;6.25;;;1.63;;
69358;SDS011;56520;49.066;8.660;2023-04-25T00:09:39;4.00;;;1.52;;
69358;SDS011;56520;49.066;8.660;2023-04-25T00:12:05;3.30;;;1.27;;
69358;SDS011;56520;49.066;8.660;2023-04-25T00:14:31;3.70;;;1.15;;
69358;SDS011;56520;49.066;8.660;2023-04-25T00:16:59;5.93;;;1.48;;
69358;SDS011;56520;49.066;8.660;2023-04-25T00:19:24;4.97;;;1.58;;
69358;SDS011;56520;49.066;8.660;2023-04-25T00:21:51;4.78;;;1.75;;
69358;SDS011;56520;49.066;8.660;2023-04-25T00:24:18;3.78;;;1.40;;
69358;SDS011;56520;49.066;8.660;2023-04-25T00:26:44;3.13;;;1.20;;
69358;SDS011;56520;49.066;8.660;2023-04-25T00:29:09;4.10;;;1.30;;
69358;SDS011;56520;49.066;8.660;2023-04-25T00:31:35;4.53;;;1.30;;
69358;SDS011;56520;49.066;8.660;2023-04-25T00:34:00;3.88;;;1.25;;
69358;SDS011;56520;49.066;8.660;2023-04-25T00:36:26;4.00;;;1.30;;
69358;SDS011;56520;49.066;8.660;2023-04-25T00:38:52;3.78;;;1.08;;
69358;SDS011;56520;49.066;8.660;2023-04-25T00:41:21;3.85;;;1.42;;
69358;SDS011;56520;49.066;8.660;2023-04-25T00:43:47;4.15;;;1.48;;
69358;SDS011;56520;49.066;8.660;2023-04-25T00:46:14;3.95;;;1.38;;
69358;SDS011;56520;49.066;8.660;2023-04-25T00:48:39;4.32;;;1.35;;
69358;SDS011;56520;49.066;8.660;2023-04-25T00:51:05;4.63;;;1.70;;
69358;SDS011;56520;49.066;8.660;2023-04-25T00:53:31;4.47;;;1.33;;
69358;SDS011;56520;49.066;8.660;2023-04-25T00:55:57;3.40;;;1.27;;
69358;SDS011;56520;49.066;8.660;2023-04-25T00:58:23;3.63;;;1.40;;
69358;SDS011;56520;49.066;8.660;2023-04-25T01:00:49;4.05;;;1.40;;
69358;SDS011;56520;49.066;8.660;2023-04-25T01:03:17;4.38;;;1.48;;
69358;SDS011;56520;49.066;8.660;2023-04-25T01:05:44;4.63;;;1.58;;
69358;SDS011;56520;49.066;8.660;2023-04-25T01:08:11;5.53;;;1.90;;
69358;SDS011;56520;49.066;8.660;2023-04-25T01:10:37;4.28;;;1.52;;
69358;SDS011;56520;49.066;8.660;2023-04-25T01:13:03;4.43;;;1.52;;
69358;SDS011;56520;49.066;8.660;2023-04-25T01:15:28;5.57;;;1.50;;
69358;SDS011;56520;49.066;8.660;2023-04-25T01:17:54;6.25;;;1.80;;
69358;SDS011;56520;49.066;8.660;2023-04-25T01:20:23;3.90;;;1.45;;
69358;SDS011;56520;49.066;8.660;2023-04-25T01:22:50;4.53;;;1.50;;
69358;SDS011;56520;49.066;8.660;2023-04-25T01:25:16;5.43;;;1.85;;
69358;SDS011;56520;49.066;8.660;2023-04-25T01:27:42;4.38;;;1.42;;
69358;SDS011;56520;49.066;8.660;2023-04-25T01:30:08;4.57;;;1.52;;
69358;SDS011;56520;49.066;8.660;2023-04-25T01:32:34;4.03;;;1.42;;
69358;SDS011;56520;49.066;8.660;2023-04-25T01:35:07;4.30;;;1.50;;
69358;SDS011;56520;49.066;8.660;2023-04-25T01:37:35;2.70;;;1.17;;
69358;SDS011;56520;49.066;8.660;2023-04-25T01:40:04;3.58;;;1.30;;
69358;SDS011;56520;49.066;8.660;2023-04-25T01:42:34;4.20;;;1.40;;
69358;SDS011;56520;49.066;8.660;2023-04-25T01:45:00;4.38;;;1.73;;
69358;SDS011;56520;49.066;8.660;2023-04-25T01:47:26;4.15;;;1.40;;
69358;SDS011;56520;49.066;8.660;2023-04-25T01:49:52;3.75;;;1.45;;
69358;SDS011;56520;49.066;8.660;2023-04-25T01:52:18;4.40;;;1.67;;
69358;SDS011;56520;49.066;8.660;2023-04-25T01:54:43;3.72;;;1.20;;
69358;SDS011;56520;49.066;8.660;2023-04-25T01:57:12;5.03;;;1.50;;
69358;SDS011;56520;49.066;8.660;2023-04-25T01:59:44;3.78;;;1.52;;
69358;SDS011;56520;49.066;8.660;2023-04-25T02:02:10;3.22;;;1.15;;
69358;SDS011;56520;49.066;8.660;2023-04-25T02:04:35;4.85;;;1.50;;
69358;SDS011;56520;49.066;8.660;2023-04-25T02:07:00;4.30;;;1.50;;
69358;SDS011;56520;49.066;8.660;2023-04-25T02:09:26;3.92;;;1.50;;
69358;SDS011;56520;49.066;8.660;2023-04-25T02:11:52;4.78;;;1.60;;
69358;SDS011;56520;49.066;8.660;2023-04-25T02:14:17;3.67;;;1.42;;
69358;SDS011;56520;49.066;8.660;2023-04-25T02:16:43;5.63;;;1.75;;
69358;SDS011;56520;49.066;8.660;2023-04-25T02:19:08;6.15;;;1.33;;
69358;SDS011;56520;49.066;8.660;2023-04-25T02:21:35;3.35;;;1.20;;
69358;SDS011;56520;49.066;8.660;2023-04-25T02:24:00;4.22;;;1.65;;
69358;SDS011;56520;49.066;8.660;2023-04-25T02:26:26;3.38;;;1.30;;
69358;SDS011;56520;49.066;8.660;2023-04-25T02:28:51;3.95;;;1.27;;
69358;SDS011;56520;49.066;8.660;2023-04-25T02:31:17;4.10;;;1.60;;
69358;SDS011;56520;49.066;8.660;2023-04-25T02:33:42;4.50;;;1.70;;
69358;SDS011;56520;49.066;8.660;2023-04-25T02:36:08;3.78;;;1.40;;
69358;SDS011;56520;49.066;8.660;2023-04-25T02:38:34;5.10;;;1.88;;
69358;SDS011;56520;49.066;8.660;2023-04-25T02:40:59;4.22;;;1.30;;
69358;SDS011;56520;49.066;8.660;2023-04-25T02:43:25;4.43;;;1.33;;
69358;SDS011;56520;49.066;8.660;2023-04-25T02:45:50;4.40;;;1.50;;
69358;SDS011;56520;49.066;8.660;2023-04-25T02:48:16;4.82;;;1.63;;
69358;SDS011;56520;49.066;8.660;2023-04-25T02:50:41;6.63;;;1.73;;
69358;SDS011;56520;49.066;8.660;2023-04-25T02:53:07;4.50;;;1.65;;
69358;SDS011;56520;49.066;8.660;2023-04-25T02:55:32;5.85;;;1.80;;
69358;SDS011;56520;49.066;8.660;2023-04-25T02:57:58;4.72;;;1.67;;
69358;SDS011;56520;49.066;8.660;2023-04-25T03:00:23;4.40;;;1.50;;
69358;SDS011;56520;49.066;8.660;2023-04-25T03:02:49;5.03;;;2.05;;
69358;SDS011;56520;49.066;8.660;2023-04-25T03:05:16;5.65;;;1.80;;
69358;SDS011;56520;49.066;8.660;2023-04-25T03:07:41;5.05;;;1.73;;
69358;SDS011;56520;49.066;8.660;2023-04-25T03:10:08;4.53;;;1.55;;
69358;SDS011;56520;49.066;8.660;2023-04-25T03:12:34;4.88;;;1.50;;
69358;SDS011;56520;49.066;8.660;2023-04-25T03:15:00;4.22;;;1.45;;
69358;SDS011;56520;49.066;8.660;2023-04-25T03:17:25;4.70;;;1.70;;
69358;SDS011;56520;49.066;8.660;2023-04-25T03:19:51;4.20;;;1.60;;
69358;SDS011;56520;49.066;8.660;2023-04-25T03:22:16;5.63;;;1.98;;
69358;SDS011;56520;49.066;8.660;2023-04-25T03:24:41;5.90;;;1.80;;
69358;SDS011;56520;49.066;8.660;2023-04-25T03:27:07;4.60;;;1.60;;
69358;SDS011;56520;49.066;8.660;2023-04-25T03:29:32;4.75;;;1.73;;
69358;SDS011;56520;49.066;8.660;2023-04-25T03:31:58;4.45;;;1.77;;
69358;SDS011;56520;49.066;8.660;2023-04-25T03:34:23;5.65;;;1.88;;
69358;SDS011;56520;49.066;8.660;2023-04-25T03:36:49;6.30;;;1.63;;
69358;SDS011;56520;49.066;8.660;2023-04-25T03:39:14;6.93;;;1.60;;
69358;SDS011;56520;49.066;8.660;2023-04-25T03:41:40;3.83;;;1.50;;
69358;SDS011;56520;49.066;8.660;2023-04-25T03:44:05;4.18;;;1.52;;
69358;SDS011;56520;49.066;8.660;2023-04-25T03:46:31;4.80;;;1.40;;
69358;SDS011;56520;49.066;8.660;2023-04-25T03:48:56;4.18;;;1.48;;
69358;SDS011;56520;49.066;8.660;2023-04-25T03:51:24;3.97;;;1.45;;
69358;SDS011;56520;49.066;8.660;2023-04-25T03:53:51;4.13;;;1.60;;
69358;SDS011;56520;49.066;8.660;2023-04-25T03:56:16;5.80;;;1.88;;
69358;SDS011;56520;49.066;8.660;2023-04-25T03:58:42;5.38;;;1.40;;
69358;SDS011;56520;49.066;8.660;2023-04-25T04:01:07;4.75;;;1.90;;
69358;SDS011;56520;49.066;8.660;2023-04-25T04:03:33;5.43;;;1.80;;
69358;SDS011;56520;49.066;8.660;2023-04-25T04:06:00;4.82;;;1.77;;
69358;SDS011;56520;49.066;8.660;2023-04-25T04:08:28;4.40;;;1.42;;
69358;SDS011;56520;49.066;8.660;2023-04-25T04:10:54;5.38;;;1.83;;
69358;SDS011;56520;49.066;8.660;2023-04-25T04:13:20;5.68;;;2.00;;
69358;SDS011;56520;49.066;8.660;2023-04-25T04:15:45;4.22;;;1.63;;
69358;SDS011;56520;49.066;8.660;2023-04-25T04:18:11;5.00;;;1.65;;
69358;SDS011;56520;49.066;8.660;2023-04-25T04:20:36;4.30;;;1.70;;
69358;SDS011;56520;49.066;8.660;2023-04-25T04:23:01;4.43;;;1.55;;
69358;SDS011;56520;49.066;8.660;2023-04-25T04:25:27;5.28;;;1.65;;
69358;SDS011;56520;49.066;8.660;2023-04-25T04:27:53;6.20;;;2.17;;
69358;SDS011;56520;49.066;8.660;2023-04-25T04:30:21;5.85;;;2.30;;
69358;SDS011;56520;49.066;8.660;2023-04-25T04:32:54;5.72;;;2.15;;
69358;SDS011;56520;49.066;8.660;2023-04-25T04:35:21;5.63;;;2.08;;
69358;SDS011;56520;49.066;8.660;2023-04-25T04:37:47;5.85;;;1.92;;
69358;SDS011;56520;49.066;8.660;2023-04-25T04:40:13;5.05;;;1.75;;
69358;SDS011;56520;49.066;8.660;2023-04-25T04:42:40;5.45;;;1.50;;
69358;SDS011;56520;49.066;8.660;2023-04-25T04:45:06;4.28;;;1.65;;
69358;SDS011;56520;49.066;8.660;2023-04-25T04:47:32;5.35;;;2.13;;
69358;SDS011;56520;49.066;8.660;2023-04-25T04:49:58;6.15;;;1.92;;
69358;SDS011;56520;49.066;8.660;2023-04-25T04:52:24;5.20;;;1.92;;
69358;SDS011;56520;49.066;8.660;2023-04-25T04:54:50;5.53;;;2.13;;
69358;SDS011;56520;49.066;8.660;2023-04-25T04:57:15;4.75;;;1.80;;
69358;SDS011;56520;49.066;8.660;2023-04-25T04:59:41;7.00;;;2.00;;
69358;SDS011;56520;49.066;8.660;2023-04-25T05:02:07;5.60;;;2.15;;
69358;SDS011;56520;49.066;8.660;2023-04-25T05:04:32;5.95;;;2.55;;
69358;SDS011;56520;49.066;8.660;2023-04-25T05:06:58;5.80;;;2.25;;
69358;SDS011;56520;49.066;8.660;2023-04-25T05:09:23;6.20;;;2.30;;
69358;SDS011;56520;49.066;8.660;2023-04-25T05:11:50;7.65;;;2.38;;
69358;SDS011;56520;49.066;8.660;2023-04-25T05:14:16;7.13;;;2.33;;
69358;SDS011;56520;49.066;8.660;2023-04-25T05:16:42;5.45;;;2.10;;
69358;SDS011;56520;49.066;8.660;2023-04-25T05:19:08;5.78;;;1.88;;
69358;SDS011;56520;49.066;8.660;2023-04-25T05:21:33;4.63;;;1.75;;
69358;SDS011;56520;49.066;8.660;2023-04-25T05:23:59;5.13;;;1.52;;
69358;SDS011;56520;49.066;8.660;2023-04-25T05:26:25;5.28;;;1.92;;
69358;SDS011;56520;49.066;8.660;2023-04-25T05:28:51;3.83;;;1.52;;
69358;SDS011;56520;49.066;8.660;2023-04-25T05:31:16;4.07;;;1.42;;
69358;SDS011;56520;49.066;8.660;2023-04-25T05:33:43;4.85;;;1.65;;
69358;SDS011;56520;49.066;8.660;2023-04-25T05:36:08;5.90;;;1.95;;
69358;SDS011;56520;49.066;8.660;2023-04-25T05:38:34;6.07;;;2.10;;
69358;SDS011;56520;49.066;8.660;2023-04-25T05:40:59;4.90;;;1.80;;
69358;SDS011;56520;49.066;8.660;2023-04-25T05:43:25;5.70;;;1.90;;
69358;SDS011;56520;49.066;8.660;2023-04-25T05:45:50;5.70;;;2.05;;
69358;SDS011;56520;49.066;8.660;2023-04-25T05:48:18;5.70;;;1.80;;
69358;SDS011;56520;49.066;8.660;2023-04-25T05:50:44;4.28;;;1.58;;
69358;SDS011;56520;49.066;8.660;2023-04-25T05:53:09;5.22;;;1.63;;
69358;SDS011;56520;49.066;8.660;2023-04-25T05:55:35;4.22;;;1.33;;
69358;SDS011;56520;49.066;8.660;2023-04-25T05:58:01;3.38;;;1.50;;
69358;SDS011;56520;49.066;8.660;2023-04-25T06:00:26;4.30;;;1.58;;
69358;SDS011;56520;49.066;8.660;2023-04-25T06:02:51;4.65;;;1.40;;
69358;SDS011;56520;49.066;8.660;2023-04-25T06:05:17;4.70;;;1.70;;
69358;SDS011;56520;49.066;8.660;2023-04-25T06:07:42;4.70;;;1.50;;
69358;SDS011;56520;49.066;8.660;2023-04-25T06:10:08;4.75;;;1.58;;
69358;SDS011;56520;49.066;8.660;2023-04-25T06:12:34;3.55;;;1.30;;
69358;SDS011;56520;49.066;8.660;2023-04-25T06:15:00;4.10;;;1.40;;
69358;SDS011;56520;49.066;8.660;2023-04-25T06:17:25;5.30;;;1.60;;
69358;SDS011;56520;49.066;8.660;2023-04-25T06:19:51;4.93;;;1.77;;
69358;SDS011;56520;49.066;8.660;2023-04-25T06:22:16;5.55;;;2.05;;
69358;SDS011;56520;49.066;8.660;2023-04-25T06:24:42;5.82;;;1.80;;
69358;SDS011;56520;49.066;8.660;2023-04-25T06:27:10;4.20;;;1.60;;
69358;SDS011;56520;49.066;8.660;2023-04-25T06:29:35;6.50;;;2.38;;
69358;SDS011;56520;49.066;8.660;2023-04-25T06:32:01;5.22;;;2.00;;
69358;SDS011;56520;49.066;8.660;2023-04-25T06:34:26;5.10;;;1.73;;
69358;SDS011;56520;49.066;8.660;2023-04-25T06:36:51;5.28;;;1.73;;
69358;SDS011;56520;49.066;8.660;2023-04-25T06:39:17;5.30;;;1.77;;
69358;SDS011;56520;49.066;8.660;2023-04-25T06:41:44;4.47;;;1.90;;
69358;SDS011;56520;49.066;8.660;2023-04-25T06:44:09;4.32;;;1.42;;
69358;SDS011;56520;49.066;8.660;2023-04-25T06:46:34;4.85;;;1.60;;
69358;SDS011;56520;49.066;8.660;2023-04-25T06:49:01;5.70;;;1.90;;
69358;SDS011;56520;49.066;8.660;2023-04-25T06:51:26;5.72;;;1.73;;
69358;SDS011;56520;49.066;8.660;2023-04-25T06:53:54;5.13;;;1.83;;
69358;SDS011;56520;49.066;8.660;2023-04-25T06:56:19;5.80;;;2.13;;
69358;SDS011;56520;49.066;8.660;2023-04-25T06:58:46;5.43;;;1.95;;
69358;SDS011;56520;49.066;8.660;2023-04-25T07:01:11;4.60;;;1.70;;
69358;SDS011;56520;49.066;8.660;2023-04-25T07:03:36;8.20;;;2.40;;
69358;SDS011;56520;49.066;8.660;2023-04-25T07:06:03;6.80;;;2.35;;
69358;SDS011;56520;49.066;8.660;2023-04-25T07:08:28;6.30;;;2.20;;
69358;SDS011;56520;49.066;8.660;2023-04-25T07:10:54;7.00;;;2.33;;
69358;SDS011;56520;49.066;8.660;2023-04-25T07:13:19;6.60;;;2.45;;
69358;SDS011;56520;49.066;8.660;2023-04-25T07:15:45;5.57;;;2.38;;
69358;SDS011;56520;49.066;8.660;2023-04-25T07:18:12;6.78;;;2.60;;
69358;SDS011;56520;49.066;8.660;2023-04-25T07:20:38;7.55;;;2.53;;
69358;SDS011;56520;49.066;8.660;2023-04-25T07:23:03;5.63;;;2.03;;
69358;SDS011;56520;49.066;8.660;2023-04-25T07:25:29;6.25;;;2.30;;
69358;SDS011;56520;49.066;8.660;2023-04-25T07:27:55;5.18;;;1.73;;
69358;SDS011;56520;49.066;8.660;2023-04-25T07:30:21;5.15;;;1.88;;
69358;SDS011;56520;49.066;8.660;2023-04-25T07:32:46;5.65;;;2.40;;
69358;SDS011;56520;49.066;8.660;2023-04-25T07:35:12;5.32;;;2.13;;
69358;SDS011;56520;49.066;8.660;2023-04-25T07:37:37;5.90;;;1.80;;
69358;SDS011;56520;49.066;8.660;2023-04-25T07:40:03;6.10;;;2.20;;
69358;SDS011;56520;49.066;8.660;2023-04-25T07:42:29;6.72;;;2.53;;
69358;SDS011;56520;49.066;8.660;2023-04-25T07:44:55;5.80;;;2.03;;
69358;SDS011;56520;49.066;8.660;2023-04-25T07:47:20;6.40;;;2.58;;
69358;SDS011;56520;49.066;8.660;2023-04-25T07:49:48;5.13;;;2.03;;
69358;SDS011;56520;49.066;8.660;2023-04-25T07:52:13;7.57;;;2.83;;
69358;SDS011;56520;49.066;8.660;2023-04-25T07:54:39;6.15;;;2.75;;
69358;SDS011;56520;49.066;8.660;2023-04-25T07:57:04;4.97;;;1.77;;
69358;SDS011;56520;49.066;8.660;2023-04-25T07:59:31;6.00;;;2.15;;
69358;SDS011;56520;49.066;8.660;2023-04-25T08:01:57;6.65;;;2.60;;
69358;SDS011;56520;49.066;8.660;2023-04-25T08:04:22;6.30;;;2.35;;
69358;SDS011;56520;49.066;8.660;2023-04-25T08:06:48;6.30;;;2.58;;
69358;SDS011;56520;49.066;8.660;2023-04-25T08:09:15;8.88;;;2.58;;
69358;SDS011;56520;49.066;8.660;2023-04-25T08:11:40;7.78;;;2.47;;
69358;SDS011;56520;49.066;8.660;2023-04-25T08:14:06;6.38;;;2.13;;
69358;SDS011;56520;49.066;8.660;2023-04-25T08:16:32;8.00;;;2.38;;
69358;SDS011;56520;49.066;8.660;2023-04-25T08:18:59;5.85;;;2.15;;
69358;SDS011;56520;49.066;8.660;2023-04-25T08:21:25;6.75;;;2.30;;
69358;SDS011;56520;49.066;8.660;2023-04-25T08:23:51;8.30;;;3.03;;
69358;SDS011;56520;49.066;8.660;2023-04-25T08:26:17;6.32;;;2.30;;
69358;SDS011;56520;49.066;8.660;2023-04-25T08:28:42;7.50;;;2.58;;
69358;SDS011;56520;49.066;8.660;2023-04-25T08:31:08;5.68;;;2.05;;
69358;SDS011;56520;49.066;8.660;2023-04-25T08:33:36;7.57;;;2.30;;
69358;SDS011;56520;49.066;8.660;2023-04-25T08:36:02;6.18;;;2.20;;
69358;SDS011;56520;49.066;8.660;2023-04-25T08:38:28;7.93;;;3.00;;
69358;SDS011;56520;49.066;8.660;2023-04-25T08:40:53;6.10;;;2.38;;
69358;SDS011;56520;49.066;8.660;2023-04-25T08:43:20;5.97;;;2.42;;
69358;SDS011;56520;49.066;8.660;2023-04-25T08:45:46;8.30;;;2.75;;
69358;SDS011;56520;49.066;8.660;2023-04-25T08:48:12;7.28;;;3.08;;
69358;SDS011;56520;49.066;8.660;2023-04-25T08:50:52;6.55;;;2.58;;
69358;SDS011;56520;49.066;8.660;2023-04-25T08:53:21;6.55;;;2.15;;
69358;SDS011;56520;49.066;8.660;2023-04-25T08:55:53;5.53;;;2.05;;
69358;SDS011;56520;49.066;8.660;2023-04-25T08:58:20;5.43;;;1.80;;
69358;SDS011;56520;49.066;8.660;2023-04-25T09:00:46;5.32;;;1.52;;
69358;SDS011;56520;49.066;8.660;2023-04-25T09:03:13;4.43;;;1.50;;
69358;SDS011;56520;49.066;8.660;2023-04-25T09:05:41;4.13;;;1.30;;
69358;SDS011;56520;49.066;8.660;2023-04-25T09:08:07;4.93;;;1.60;;
69358;SDS011;56520;49.066;8.660;2023-04-25T09:10:33;5.35;;;1.63;;
69358;SDS011;56520;49.066;8.660;2023-04-25T09:15:46;3.97;;;1.50;;
69358;SDS011;56520;49.066;8.660;2023-04-25T09:20:49;6.07;;;1.70;;
69358;SDS011;56520;49.066;8.660;2023-04-25T09:23:16;4.00;;;1.50;;
69358;SDS011;56520;49.066;8.660;2023-04-25T09:25:44;4.90;;;1.52;;
69358;SDS011;56520;49.066;8.660;2023-04-25T09:28:13;3.78;;;1.33;;
69358;SDS011;56520;49.066;8.660;2023-04-25T09:30:38;3.78;;;1.40;;
69358;SDS011;56520;49.066;8.660;2023-04-25T09:33:04;4.18;;;1.33;;
69358;SDS011;56520;49.066;8.660;2023-04-25T09:35:35;4.68;;;1.52;;
69358;SDS011;56520;49.066;8.660;2023-04-25T09:38:14;4.97;;;1.88;;
69358;SDS011;56520;49.066;8.660;2023-04-25T09:40:41;5.82;;;1.83;;
69358;SDS011;56520;49.066;8.660;2023-04-25T09:43:26;4.70;;;1.60;;
69358;SDS011;56520;49.066;8.660;2023-04-25T09:45:53;6.60;;;2.08;;
69358;SDS011;56520;49.066;8.660;2023-04-25T09:48:21;6.65;;;2.65;;
69358;SDS011;56520;49.066;8.660;2023-04-25T09:53:28;6.70;;;2.22;;
69358;SDS011;56520;49.066;8.660;2023-04-25T09:55:53;8.85;;;3.20;;
69358;SDS011;56520;49.066;8.660;2023-04-25T09:58:20;6.35;;;2.40;;
69358;SDS011;56520;49.066;8.660;2023-04-25T10:00:45;6.85;;;2.22;;
69358;SDS011;56520;49.066;8.660;2023-04-25T10:03:11;6.72;;;2.30;;
69358;SDS011;56520;49.066;8.660;2023-04-25T10:05:37;6.88;;;2.17;;
69358;SDS011;56520;49.066;8.660;2023-04-25T10:08:03;9.98;;;2.60;;
69358;SDS011;56520;49.066;8.660;2023-04-25T10:10:29;7.60;;;2.67;;
69358;SDS011;56520;49.066;8.660;2023-04-25T10:12:57;8.80;;;2.40;;
69358;SDS011;56520;49.066;8.660;2023-04-25T10:15:23;7.35;;;2.35;;
69358;SDS011;56520;49.066;8.660;2023-04-25T10:17:49;6.93;;;2.58;;
69358;SDS011;56520;49.066;8.660;2023-04-25T10:20:15;6.10;;;2.05;;
69358;SDS011;56520;49.066;8.660;2023-04-25T10:22:42;6.40;;;2.17;;
69358;SDS011;56520;49.066;8.660;2023-04-25T10:25:10;6.88;;;2.28;;
69358;SDS011;56520;49.066;8.660;2023-04-25T10:27:36;9.95;;;2.17;;
69358;SDS011;56520;49.066;8.660;2023-04-25T10:30:06;9.82;;;2.53;;
69358;SDS011;56520;49.066;8.660;2023-04-25T10:32:36;9.07;;;2.97;;
69358;SDS011;56520;49.066;8.660;2023-04-25T10:35:14;8.23;;;2.63;;
69358;SDS011;56520;49.066;8.660;2023-04-25T10:40:41;10.27;;;2.80;;
69358;SDS011;56520;49.066;8.660;2023-04-25T10:46:18;8.65;;;2.80;;
69358;SDS011;56520;49.066;8.660;2023-04-25T10:51:19;8.85;;;2.92;;
69358;SDS011;56520;49.066;8.660;2023-04-25T10:53:47;8.05;;;2.78;;
69358;SDS011;56520;49.066;8.660;2023-04-25T10:56:22;8.23;;;2.80;;
69358;SDS011;56520;49.066;8.660;2023-04-25T10:58:50;9.43;;;2.90;;
69358;SDS011;56520;49.066;8.660;2023-04-25T11:01:19;10.20;;;3.17;;
69358;SDS011;56520;49.066;8.660;2023-04-25T11:03:45;6.38;;;2.70;;
69358;SDS011;56520;49.066;8.660;2023-04-25T11:06:18;7.55;;;2.65;;
69358;SDS011;56520;49.066;8.660;2023-04-25T11:08:54;7.07;;;2.58;;
69358;SDS011;56520;49.066;8.660;2023-04-25T11:11:20;6.45;;;2.67;;
69358;SDS011;56520;49.066;8.660;2023-04-25T11:13:48;8.65;;;2.42;;
69358;SDS011;56520;49.066;8.660;2023-04-25T11:16:15;9.38;;;3.10;;
69358;SDS011;56520;49.066;8.660;2023-04-25T11:18:41;6.93;;;2.63;;
69358;SDS011;56520;49.066;8.660;2023-04-25T11:21:10;6.60;;;2.65;;
69358;SDS011;56520;49.066;8.660;2023-04-25T11:23:36;6.93;;;2.90;;
69358;SDS011;56520;49.066;8.660;2023-04-25T11:26:02;7.63;;;2.97;;
69358;SDS011;56520;49.066;8.660;2023-04-25T11:28:28;6.75;;;2.53;;
69358;SDS011;56520;49.066;8.660;2023-04-25T11:30:54;8.23;;;3.00;;
69358;SDS011;56520;49.066;8.660;2023-04-25T11:33:22;7.22;;;2.95;;
69358;SDS011;56520;49.066;8.660;2023-04-25T11:35:50;8.43;;;2.90;;
69358;SDS011;56520;49.066;8.660;2023-04-25T11:38:17;8.57;;;3.00;;
69358;SDS011;56520;49.066;8.660;2023-04-25T11:40:43;7.97;;;3.20;;
69358;SDS011;56520;49.066;8.660;2023-04-25T11:43:08;9.93;;;3.30;;
69358;SDS011;56520;49.066;8.660;2023-04-25T11:45:36;9.65;;;3.33;;
69358;SDS011;56520;49.066;8.660;2023-04-25T11:48:02;8.63;;;2.80;;
69358;SDS011;56520;49.066;8.660;2023-04-25T11:50:28;9.32;;;3.25;;
69358;SDS011;56520;49.066;8.660;2023-04-25T11:52:55;8.27;;;3.10;;
69358;SDS011;56520;49.066;8.660;2023-04-25T11:55:21;11.70;;;3.47;;
69358;SDS011;56520;49.066;8.660;2023-04-25T11:57:48;10.85;;;3.40;;
69358;SDS011;56520;49.066;8.660;2023-04-25T12:00:16;8.98;;;3.28;;
69358;SDS011;56520;49.066;8.660;2023-04-25T12:02:43;9.38;;;3.30;;
69358;SDS011;56520;49.066;8.660;2023-04-25T12:05:11;8.52;;;2.60;;
69358;SDS011;56520;49.066;8.660;2023-04-25T12:07:37;7.10;;;2.58;;
69358;SDS011;56520;49.066;8.660;2023-04-25T12:12:36;8.02;;;2.75;;
69358;SDS011;56520;49.066;8.660;2023-04-25T12:17:44;8.00;;;2.92;;
69358;SDS011;56520;49.066;8.660;2023-04-25T12:20:20;8.25;;;2.97;;
69358;SDS011;56520;49.066;8.660;2023-04-25T12:22:49;7.70;;;3.20;;
69358;SDS011;56520;49.066;8.660;2023-04-25T12:28:13;6.45;;;2.35;;
69358;SDS011;56520;49.066;8.660;2023-04-25T12:30:55;11.07;;;2.85;;
69358;SDS011;56520;49.066;8.660;2023-04-25T12:33:24;9.30;;;2.80;;
69358;SDS011;56520;49.066;8.660;2023-04-25T12:35:56;9.48;;;2.88;;
69358;SDS011;56520;49.066;8.660;2023-04-25T12:38:26;7.70;;;2.80;;
69358;SDS011;56520;49.066;8.660;2023-04-25T12:40:54;7.75;;;3.00;;
69358;SDS011;56520;49.066;8.660;2023-04-25T12:43:20;8.75;;;3.30;;
69358;SDS011;56520;49.066;8.660;2023-04-25T12:45:49;9.50;;;3.00;;
69358;SDS011;56520;49.066;8.660;2023-04-25T12:48:16;6.82;;;2.47;;
69358;SDS011;56520;49.066;8.660;2023-04-25T12:50:41;9.32;;;2.63;;
69358;SDS011;56520;49.066;8.660;2023-04-25T12:53:07;8.70;;;2.92;;
69358;SDS011;56520;49.066;8.660;2023-04-25T12:55:32;8.18;;;2.42;;
69358;SDS011;56520;49.066;8.660;2023-04-25T12:57:58;9.07;;;2.70;;
69358;SDS011;56520;49.066;8.660;2023-04-25T13:00:23;9.05;;;3.05;;
69358;SDS011;56520;49.066;8.660;2023-04-25T13:02:49;5.80;;;2.53;;
69358;SDS011;56520;49.066;8.660;2023-04-25T13:05:15;9.00;;;2.70;;
69358;SDS011;56520;49.066;8.660;2023-04-25T13:07:40;9.18;;;2.97;;
69358;SDS011;56520;49.066;8.660;2023-04-25T13:10:06;10.88;;;2.90;;
69358;SDS011;56520;49.066;8.660;2023-04-25T13:12:32;6.93;;;2.67;;
69358;SDS011;56520;49.066;8.660;2023-04-25T13:14:57;11.68;;;2.92;;
69358;SDS011;56520;49.066;8.660;2023-04-25T13:17:23;7.68;;;2.50;;
69358;SDS011;56520;49.066;8.660;2023-04-25T13:19:48;7.43;;;2.53;;
69358;SDS011;56520;49.066;8.660;2023-04-25T13:22:14;9.43;;;2.78;;
69358;SDS011;56520;49.066;8.660;2023-04-25T13:24:41;6.82;;;2.55;;
69358;SDS011;56520;49.066;8.660;2023-04-25T13:27:07;7.97;;;2.92;;
69358;SDS011;56520;49.066;8.660;2023-04-25T13:29:33;12.73;;;3.72;;
69358;SDS011;56520;49.066;8.660;2023-04-25T13:32:00;8.73;;;2.90;;
69358;SDS011;56520;49.066;8.660;2023-04-25T13:34:26;8.05;;;3.25;;
69358;SDS011;56520;49.066;8.660;2023-04-25T13:36:51;8.07;;;2.85;;
69358;SDS011;56520;49.066;8.660;2023-04-25T13:39:17;9.43;;;3.15;;
69358;SDS011;56520;49.066;8.660;2023-04-25T13:41:42;6.43;;;2.60;;
69358;SDS011;56520;49.066;8.660;2023-04-25T13:44:08;9.07;;;2.75;;
69358;SDS011;56520;49.066;8.660;2023-04-25T13:46:33;7.20;;;2.67;;
69358;SDS011;56520;49.066;8.660;2023-04-25T13:48:59;6.68;;;2.55;;
69358;SDS011;56520;49.066;8.660;2023-04-25T13:51:24;7.93;;;2.70;;
69358;SDS011;56520;49.066;8.660;2023-04-25T13:53:51;8.63;;;3.45;;
69358;SDS011;56520;49.066;8.660;2023-04-25T13:56:17;8.30;;;2.97;;
69358;SDS011;56520;49.066;8.660;2023-04-25T13:58:44;7.63;;;2.85;;
69358;SDS011;56520;49.066;8.660;2023-04-25T14:01:10;8.35;;;2.80;;
69358;SDS011;56520;49.066;8.660;2023-04-25T14:03:35;6.68;;;2.58;;
69358;SDS011;56520;49.066;8.660;2023-04-25T14:06:01;8.20;;;2.50;;
69358;SDS011;56520;49.066;8.660;2023-04-25T14:08:26;7.80;;;2.50;;
69358;SDS011;56520;49.066;8.660;2023-04-25T14:10:52;7.78;;;2.60;;
69358;SDS011;56520;49.066;8.660;2023-04-25T14:13:19;5.88;;;2.20;;
69358;SDS011;56520;49.066;8.660;2023-04-25T14:15:44;5.65;;;2.38;;
69358;SDS011;56520;49.066;8.660;2023-04-25T14:18:10;7.22;;;2.78;;
69358;SDS011;56520;49.066;8.660;2023-04-25T14:20:35;7.55;;;2.85;;
69358;SDS011;56520;49.066;8.660;2023-04-25T14:23:01;7.82;;;2.70;;
69358;SDS011;56520;49.066;8.660;2023-04-25T14:25:27;7.60;;;2.83;;
69358;SDS011;56520;49.066;8.660;2023-04-25T14:27:52;7.78;;;2.40;;
69358;SDS011;56520;49.066;8.660;2023-04-25T14:30:18;7.95;;;2.67;;
69358;SDS011;56520;49.066;8.660;2023-04-25T14:32:44;6.57;;;2.47;;
69358;SDS011;56520;49.066;8.660;2023-04-25T14:35:10;6.93;;;2.50;;
69358;SDS011;56520;49.066;8.660;2023-04-25T14:37:36;6.28;;;2.60;;
69358;SDS011;56520;49.066;8.660;2023-04-25T14:40:01;7.53;;;2.70;;
69358;SDS011;56520;49.066;8.660;2023-04-25T14:42:27;6.93;;;2.40;;
69358;SDS011;56520;49.066;8.660;2023-04-25T14:44:52;6.30;;;2.30;;
69358;SDS011;56520;49.066;8.660;2023-04-25T14:47:18;6.60;;;2.80;;
69358;SDS011;56520;49.066;8.660;2023-04-25T14:49:43;5.78;;;2.33;;
69358;SDS011;56520;49.066;8.660;2023-04-25T14:52:09;9.63;;;2.58;;
69358;SDS011;56520;49.066;8.660;2023-04-25T14:54:34;6.25;;;2.17;;
69358;SDS011;56520;49.066;8.660;2023-04-25T14:57:00;6.38;;;2.25;;
69358;SDS011;56520;49.066;8.660;2023-04-25T14:59:26;7.07;;;2.25;;
69358;SDS011;56520;49.066;8.660;2023-04-25T15:01:52;6.95;;;2.42;;
69358;SDS011;56520;49.066;8.660;2023-04-25T15:04:18;6.55;;;2.20;;
69358;SDS011;56520;49.066;8.660;2023-04-25T15:06:43;6.32;;;2.35;;
69358;SDS011;56520;49.066;8.660;2023-04-25T15:09:09;7.25;;;2.30;;